createdAt,value
2022-10-02T00:00:41.542Z,17.60
2022-10-02T00:03:15.095Z,17.57
2022-10-02T00:05:47.259Z,16.73
2022-10-02T00:08:23.930Z,16.93
2022-10-02T00:10:56.749Z,18.43
2022-10-02T00:13:29.451Z,17.00
2022-10-02T00:15:58.155Z,16.60
2022-10-02T00:18:32.639Z,17.10
2022-10-02T00:21:05.242Z,17.10
2022-10-02T00:23:39.727Z,15.90
2022-10-02T00:26:15.194Z,17.50
2022-10-02T00:29:04.691Z,17.73
2022-10-02T00:31:42.507Z,16.77
2022-10-02T00:34:21.940Z,17.90
2022-10-02T00:37:00.121Z,18.20
2022-10-02T00:39:41.499Z,16.33
2022-10-02T00:42:50.416Z,14.40
2022-10-02T00:45:43.257Z,17.80
2022-10-02T00:48:48.166Z,19.77
2022-10-02T00:51:36.781Z,17.50
2022-10-02T00:54:17.269Z,20.27
2022-10-02T00:56:53.718Z,20.97
2022-10-02T00:59:41.901Z,17.37
2022-10-02T01:02:15.490Z,18.03
2022-10-02T01:04:43.910Z,21.07
2022-10-02T01:07:14.184Z,17.90
2022-10-02T01:09:42.920Z,18.63
2022-10-02T01:12:11.295Z,18.03
2022-10-02T01:14:41.984Z,18.40
2022-10-02T01:17:24.455Z,18.43
2022-10-02T01:19:53.102Z,21.20
2022-10-02T01:22:27.917Z,19.10
2022-10-02T01:24:57.803Z,19.50
2022-10-02T01:27:27.545Z,21.53
2022-10-02T01:29:57.989Z,21.20
2022-10-02T01:32:28.142Z,19.53
2022-10-02T01:34:57.270Z,25.13
2022-10-02T01:37:29.896Z,22.70
2022-10-02T01:40:05.758Z,21.17
2022-10-02T01:42:34.361Z,22.17
2022-10-02T01:45:03.269Z,22.30
2022-10-02T01:47:40.548Z,18.70
2022-10-02T01:50:17.780Z,21.40
2022-10-02T01:52:53.399Z,20.70
2022-10-02T01:55:32.629Z,25.43
2022-10-02T01:58:17.623Z,21.60
2022-10-02T02:01:01.623Z,22.63
2022-10-02T02:03:45.590Z,21.63
2022-10-02T02:06:20.263Z,20.83
2022-10-02T02:09:01.905Z,23.57
2022-10-02T02:11:32.379Z,21.00
2022-10-02T02:14:04.344Z,22.63
2022-10-02T02:16:37.305Z,23.73
2022-10-02T02:19:11.042Z,25.23
2022-10-02T02:21:42.377Z,22.27
2022-10-02T02:24:15.578Z,24.10
2022-10-02T02:26:47.020Z,23.83
2022-10-02T02:29:18.414Z,24.60
2022-10-02T02:31:52.106Z,22.83
2022-10-02T02:34:23.991Z,20.40
2022-10-02T02:36:57.681Z,23.83
2022-10-02T02:39:32.685Z,25.07
2022-10-02T02:42:05.986Z,23.43
2022-10-02T02:44:39.037Z,24.43
2022-10-02T02:47:12.803Z,26.00
2022-10-02T02:49:49.376Z,24.87
2022-10-02T02:52:22.163Z,25.23
2022-10-02T02:54:55.760Z,24.63
2022-10-02T02:57:29.729Z,23.27
2022-10-02T02:59:59.678Z,22.63
2022-10-02T03:02:27.914Z,25.47
2022-10-02T03:04:56.068Z,22.77
2022-10-02T03:07:24.285Z,23.80
2022-10-02T03:10:01.588Z,23.77
2022-10-02T03:12:45.156Z,23.93
2022-10-02T03:15:26.566Z,26.30
2022-10-02T03:18:15.352Z,28.90
2022-10-02T03:20:52.400Z,30.80
2022-10-02T03:23:28.971Z,25.83
2022-10-02T03:26:04.225Z,26.67
2022-10-02T03:28:54.919Z,29.97
2022-10-02T03:31:27.824Z,30.27
2022-10-02T03:33:58.551Z,29.77
2022-10-02T03:36:27.322Z,31.17
2022-10-02T03:39:20.224Z,26.83
2022-10-02T03:41:47.079Z,29.83
2022-10-02T03:44:16.640Z,32.47
2022-10-02T03:46:45.047Z,30.07
2022-10-02T03:49:13.310Z,31.07
2022-10-02T03:51:41.446Z,31.33
2022-10-02T03:54:17.126Z,33.40
2022-10-02T03:56:54.194Z,31.40
2022-10-02T03:59:36.053Z,30.27
2022-10-02T04:02:10.452Z,30.57
2022-10-02T04:04:47.299Z,29.73
2022-10-02T04:07:20.571Z,31.43
2022-10-02T04:09:56.124Z,34.70
2022-10-02T04:12:28.103Z,35.40
2022-10-02T04:15:02.950Z,31.17
2022-10-02T04:17:38.520Z,34.80
2022-10-02T04:20:13.474Z,32.60
2022-10-02T04:22:47.004Z,31.83
2022-10-02T04:25:19.519Z,29.93
2022-10-02T04:27:54.469Z,31.97
2022-10-02T04:30:24.438Z,37.27
2022-10-02T04:32:52.865Z,33.63
2022-10-02T04:35:30.249Z,31.67
2022-10-02T04:38:36.533Z,34.13
2022-10-02T04:41:17.646Z,31.73
2022-10-02T04:43:59.878Z,32.60
2022-10-02T04:46:49.285Z,37.80
2022-10-02T04:49:39.881Z,30.70
2022-10-02T04:52:45.944Z,30.77
2022-10-02T04:55:26.074Z,30.30
2022-10-02T04:58:07.151Z,35.03
2022-10-02T05:00:41.996Z,36.40
2022-10-02T05:03:33.986Z,34.93
2022-10-02T05:06:16.158Z,33.33
2022-10-02T05:08:57.457Z,32.77
2022-10-02T05:11:38.191Z,36.23
2022-10-02T05:14:31.623Z,33.33
2022-10-02T05:17:13.967Z,29.43
2022-10-02T05:19:57.209Z,30.27
2022-10-02T05:22:49.715Z,32.57
2022-10-02T05:25:38.010Z,28.10
2022-10-02T05:28:24.887Z,30.07
2022-10-02T05:31:04.179Z,27.30
2022-10-02T05:33:50.912Z,27.17
2022-10-02T05:36:34.816Z,29.30
2022-10-02T05:39:09.333Z,26.63
2022-10-02T05:41:45.978Z,27.53
2022-10-02T05:44:18.967Z,26.43
2022-10-02T05:46:52.731Z,27.13
2022-10-02T05:49:25.165Z,28.87
2022-10-02T05:52:00.306Z,24.80
2022-10-02T05:54:36.506Z,24.40
2022-10-02T05:57:13.388Z,25.07
2022-10-02T05:59:48.805Z,21.63
2022-10-02T06:02:25.288Z,20.43
2022-10-02T06:05:02.255Z,23.40
2022-10-02T06:07:33.673Z,21.07
2022-10-02T06:10:07.955Z,21.43
2022-10-02T06:12:40.997Z,20.80
2022-10-02T06:15:17.866Z,22.03
2022-10-02T06:17:49.255Z,23.83
2022-10-02T06:20:23.620Z,22.17
2022-10-02T06:23:01.678Z,24.63
2022-10-02T06:25:33.645Z,26.60
2022-10-02T06:28:09.132Z,27.40
2022-10-02T06:30:42.617Z,26.00
2022-10-02T06:33:17.566Z,24.07
2022-10-02T06:35:59.743Z,24.90
2022-10-02T06:38:43.236Z,25.47
2022-10-02T06:41:20.674Z,28.07
2022-10-02T06:44:09.354Z,28.33
2022-10-02T06:46:51.175Z,22.73
2022-10-02T06:49:32.269Z,18.97
2022-10-02T06:52:15.738Z,18.47
2022-10-02T06:55:01.121Z,17.40
2022-10-02T06:57:48.525Z,17.27
2022-10-02T07:00:19.911Z,17.30
2022-10-02T07:03:26.288Z,18.20
2022-10-02T07:06:24.191Z,18.20
2022-10-02T07:09:26.795Z,21.40
2022-10-02T07:12:09.506Z,19.33
2022-10-02T07:14:56.495Z,19.57
2022-10-02T07:17:36.051Z,21.70
2022-10-02T07:20:36.671Z,21.17
2022-10-02T07:23:19.211Z,23.03
2022-10-02T07:26:07.976Z,25.70
2022-10-02T07:28:43.256Z,24.73
2022-10-02T07:31:21.092Z,20.37
2022-10-02T07:34:01.126Z,21.70
2022-10-02T07:36:42.835Z,20.80
2022-10-02T07:39:23.913Z,21.43
2022-10-02T07:42:08.080Z,24.40
2022-10-02T07:45:04.736Z,20.37
2022-10-02T07:47:49.951Z,18.73
2022-10-02T07:50:28.174Z,19.17
2022-10-02T07:53:06.229Z,16.73
2022-10-02T07:55:41.500Z,21.50
2022-10-02T07:58:15.015Z,16.83
2022-10-02T08:00:50.312Z,19.07
2022-10-02T08:03:22.566Z,13.93
2022-10-02T08:05:53.382Z,14.33
2022-10-02T08:08:27.132Z,14.67
2022-10-02T08:10:59.363Z,15.27
2022-10-02T08:13:32.901Z,15.60
2022-10-02T08:16:05.081Z,10.37
2022-10-02T08:18:38.082Z,9.27
2022-10-02T08:21:14.405Z,16.80
2022-10-02T08:23:47.332Z,7.63
2022-10-02T08:26:21.306Z,8.53
2022-10-02T08:28:57.206Z,12.13
2022-10-02T08:31:27.001Z,11.73
2022-10-02T08:33:56.173Z,10.40
2022-10-02T08:37:00.790Z,12.60
2022-10-02T08:39:47.998Z,19.27
2022-10-02T08:42:57.800Z,12.27
2022-10-02T08:45:54.481Z,12.27
2022-10-02T08:49:15.718Z,15.90
2022-10-02T08:52:45.847Z,10.53
2022-10-02T08:55:47.209Z,8.77
2022-10-02T08:58:54.118Z,14.73
2022-10-02T09:01:43.682Z,10.63
2022-10-02T09:04:45.129Z,13.53
2022-10-02T09:07:56.981Z,17.17
2022-10-02T09:10:51.486Z,16.53
2022-10-02T09:13:55.426Z,9.20
2022-10-02T09:16:30.588Z,13.47
2022-10-02T09:19:03.823Z,9.43
2022-10-02T09:21:56.330Z,12.20
2022-10-02T09:24:52.385Z,11.70
2022-10-02T09:27:59.199Z,14.17
2022-10-02T09:30:47.502Z,12.70
2022-10-02T09:33:52.489Z,17.60
2022-10-02T09:36:49.333Z,13.60
2022-10-02T09:39:53.670Z,7.17
2022-10-02T09:43:03.641Z,8.47
2022-10-02T09:46:08.487Z,8.73
2022-10-02T09:49:15.057Z,6.67
2022-10-02T09:52:21.235Z,6.83
2022-10-02T09:55:36.654Z,8.20
2022-10-02T09:58:52.256Z,8.77
2022-10-02T10:01:40.840Z,12.67
2022-10-02T10:05:01.308Z,8.57
2022-10-02T10:07:57.693Z,6.50
2022-10-02T10:10:52.604Z,4.77
2022-10-02T10:14:00.983Z,4.73
2022-10-02T10:17:09.041Z,10.43
2022-10-02T10:20:05.904Z,5.97
2022-10-02T10:23:01.218Z,9.07
2022-10-02T10:25:50.399Z,7.27
2022-10-02T10:29:00.661Z,9.40
2022-10-02T10:32:08.305Z,7.07
2022-10-02T10:35:19.637Z,6.57
2022-10-02T10:38:33.829Z,5.93
2022-10-02T10:41:36.281Z,3.77
2022-10-02T10:44:32.580Z,3.20
2022-10-02T10:47:20.233Z,8.03
2022-10-02T10:50:20.623Z,4.60
2022-10-02T10:53:04.274Z,6.80
2022-10-02T10:55:57.243Z,3.97
2022-10-02T10:58:39.098Z,3.70
2022-10-02T11:01:15.223Z,5.93
2022-10-02T11:04:17.391Z,4.67
2022-10-02T11:07:08.068Z,5.13
2022-10-02T11:10:11.903Z,6.70
2022-10-02T11:13:13.171Z,8.27
2022-10-02T11:16:18.080Z,6.53
2022-10-02T11:19:17.893Z,3.73
2022-10-02T11:22:15.704Z,5.93
2022-10-02T11:25:00.789Z,9.40
2022-10-02T11:28:04.962Z,6.37
2022-10-02T11:30:43.122Z,11.10
2022-10-02T11:33:39.887Z,8.37
2022-10-02T11:36:41.699Z,5.93
2022-10-02T11:39:37.232Z,6.87
2022-10-02T11:42:34.453Z,3.93
2022-10-02T11:45:26.276Z,7.80
2022-10-02T11:48:21.466Z,8.53
2022-10-02T11:51:21.750Z,5.23
2022-10-02T11:54:16.070Z,4.60
2022-10-02T11:57:01.919Z,6.47
2022-10-02T11:59:48.877Z,4.43
2022-10-02T12:02:23.864Z,6.83
2022-10-02T12:05:05.968Z,6.13
2022-10-02T12:07:42.645Z,4.07
2022-10-02T12:10:35.703Z,5.37
2022-10-02T12:13:40.373Z,6.27
2022-10-02T12:16:18.160Z,6.80
2022-10-02T12:18:59.136Z,9.67
2022-10-02T12:22:14.432Z,6.20
2022-10-02T12:25:10.317Z,5.57
2022-10-02T12:27:50.863Z,6.37
2022-10-02T12:30:23.305Z,6.20
2022-10-02T12:33:10.478Z,10.70
2022-10-02T12:35:56.504Z,6.87
2022-10-02T12:38:34.954Z,4.30
2022-10-02T12:41:13.230Z,5.67
2022-10-02T12:44:12.634Z,7.23
2022-10-02T12:46:59.864Z,7.23
2022-10-02T12:49:45.564Z,7.20
2022-10-02T12:52:56.523Z,8.13
2022-10-02T12:56:07.589Z,6.23
2022-10-02T12:58:49.941Z,6.07
2022-10-02T13:02:07.281Z,7.40
2022-10-02T13:05:05.543Z,6.53
2022-10-02T13:08:04.392Z,5.83
2022-10-02T13:10:40.539Z,7.73
2022-10-02T13:13:27.991Z,5.97
2022-10-02T13:16:02.860Z,6.63
2022-10-02T13:18:47.256Z,8.33
2022-10-02T13:21:23.663Z,7.20
2022-10-02T13:24:04.011Z,8.70
2022-10-02T13:26:38.313Z,9.47
2022-10-02T13:29:25.637Z,5.53
2022-10-02T13:32:04.889Z,6.87
2022-10-02T13:34:50.308Z,8.90
2022-10-02T13:37:32.026Z,6.93
2022-10-02T13:40:18.370Z,8.33
2022-10-02T13:43:01.600Z,12.57
2022-10-02T13:45:36.360Z,9.43
2022-10-02T13:48:16.902Z,9.30
2022-10-02T13:50:53.685Z,6.27
2022-10-02T13:53:49.853Z,6.03
2022-10-02T13:56:37.511Z,9.47
2022-10-02T13:59:30.765Z,6.17
2022-10-02T14:02:13.031Z,3.83
2022-10-02T14:04:53.070Z,7.67
2022-10-02T14:07:46.560Z,5.63
2022-10-02T14:10:28.357Z,5.20
2022-10-02T14:13:14.848Z,7.07
2022-10-02T14:16:01.039Z,7.20
2022-10-02T14:18:42.308Z,8.27
2022-10-02T14:21:18.415Z,5.17
2022-10-02T14:24:02.281Z,8.40
2022-10-02T14:26:43.156Z,6.97
2022-10-02T14:29:29.075Z,4.07
2022-10-02T14:32:21.812Z,5.87
2022-10-02T14:35:05.019Z,6.50
2022-10-02T14:38:17.250Z,6.30
2022-10-02T14:40:52.585Z,5.73
2022-10-02T14:44:14.825Z,6.67
2022-10-02T14:46:59.375Z,3.77
2022-10-02T14:49:47.756Z,8.37
2022-10-02T14:52:28.955Z,9.40
2022-10-02T14:55:23.078Z,8.70
2022-10-02T14:58:17.540Z,6.33
2022-10-02T15:01:04.745Z,4.93
2022-10-02T15:03:48.513Z,4.63
2022-10-02T15:06:24.811Z,4.90
2022-10-02T15:08:59.782Z,6.43
2022-10-02T15:11:49.560Z,6.73
2022-10-02T15:14:22.913Z,10.37
2022-10-02T15:17:17.960Z,6.23
2022-10-02T15:19:50.468Z,5.90
2022-10-02T15:22:22.918Z,6.20
2022-10-02T15:24:57.734Z,7.30
2022-10-02T15:27:27.877Z,8.37
2022-10-02T15:30:15.403Z,10.73
2022-10-02T15:33:12.113Z,8.30
2022-10-02T15:36:09.522Z,11.50
2022-10-02T15:39:09.920Z,12.57
2022-10-02T15:41:49.319Z,11.87
2022-10-02T15:44:34.984Z,9.37
2022-10-02T15:47:15.614Z,9.80
2022-10-02T15:50:05.709Z,10.10
2022-10-02T15:52:42.670Z,9.03
2022-10-02T15:55:21.806Z,7.93
2022-10-02T15:58:24.459Z,8.53
2022-10-02T16:01:19.824Z,12.40
2022-10-02T16:03:52.441Z,9.07
2022-10-02T16:06:40.572Z,11.83
2022-10-02T16:09:33.575Z,9.83
2022-10-02T16:12:29.540Z,12.00
2022-10-02T16:15:04.625Z,11.73
2022-10-02T16:18:13.882Z,11.10
2022-10-02T16:21:23.595Z,8.93
2022-10-02T16:24:10.385Z,13.83
2022-10-02T16:27:12.244Z,12.57
2022-10-02T16:29:47.803Z,8.37
2022-10-02T16:32:24.683Z,9.40
2022-10-02T16:35:13.019Z,7.57
2022-10-02T16:37:46.156Z,10.07
2022-10-02T16:40:24.875Z,9.00
2022-10-02T16:43:13.126Z,11.37
2022-10-02T16:45:57.190Z,10.83
2022-10-02T16:48:37.037Z,11.43
2022-10-02T16:51:15.650Z,7.90
2022-10-02T16:53:49.660Z,9.17
2022-10-02T16:56:24.564Z,9.97
2022-10-02T16:59:01.595Z,9.97
2022-10-02T17:01:35.214Z,10.07
2022-10-02T17:04:19.125Z,10.13
2022-10-02T17:06:53.546Z,10.77
2022-10-02T17:09:31.754Z,10.93
2022-10-02T17:12:10.559Z,9.53
2022-10-02T17:14:46.629Z,12.93
2022-10-02T17:17:23.016Z,11.47
2022-10-02T17:19:54.563Z,9.77
2022-10-02T17:22:31.429Z,10.33
2022-10-02T17:25:07.935Z,12.13
2022-10-02T17:27:53.222Z,9.37
2022-10-02T17:30:25.105Z,11.07
2022-10-02T17:33:05.619Z,13.30
2022-10-02T17:35:47.846Z,11.23
2022-10-02T17:38:54.376Z,11.87
2022-10-02T17:41:35.049Z,10.87
2022-10-02T17:44:14.160Z,12.53
2022-10-02T17:47:12.752Z,11.87
2022-10-02T17:49:58.923Z,11.87
2022-10-02T17:52:53.392Z,13.13
2022-10-02T17:55:54.354Z,13.20
2022-10-02T17:58:29.774Z,11.03
2022-10-02T18:01:10.975Z,8.53
2022-10-02T18:03:50.850Z,8.33
2022-10-02T18:06:29.253Z,15.60
2022-10-02T18:09:25.832Z,10.30
2022-10-02T18:12:31.766Z,15.10
2022-10-02T18:15:29.695Z,17.33
2022-10-02T18:18:23.001Z,14.13
2022-10-02T18:21:06.612Z,17.40
2022-10-02T18:23:56.503Z,17.33
2022-10-02T18:26:34.841Z,14.77
2022-10-02T18:29:26.585Z,17.30
2022-10-02T18:32:24.495Z,18.17
2022-10-02T18:35:08.351Z,18.83
2022-10-02T18:37:51.247Z,23.10
2022-10-02T18:40:25.058Z,22.73
2022-10-02T18:43:21.934Z,22.63
2022-10-02T18:46:00.260Z,24.67
2022-10-02T18:48:51.898Z,20.77
2022-10-02T18:51:40.703Z,24.43
2022-10-02T18:54:23.375Z,19.43
2022-10-02T18:56:59.696Z,20.97
2022-10-02T18:59:46.495Z,19.63
2022-10-02T19:02:36.524Z,20.07
2022-10-02T19:05:21.783Z,20.33
2022-10-02T19:07:57.186Z,23.57
2022-10-02T19:10:29.175Z,24.47
2022-10-02T19:13:02.195Z,20.20
2022-10-02T19:15:32.003Z,20.60
2022-10-02T19:18:05.201Z,18.93
2022-10-02T19:20:42.681Z,21.03
2022-10-02T19:23:22.740Z,21.40
2022-10-02T19:25:52.464Z,21.20
2022-10-02T19:28:25.496Z,15.83
2022-10-02T19:30:57.219Z,11.13
2022-10-02T19:33:35.958Z,14.83
2022-10-02T19:36:06.330Z,11.30
2022-10-02T19:38:39.076Z,12.23
2022-10-02T19:41:10.669Z,10.97
2022-10-02T19:43:48.918Z,11.50
2022-10-02T19:46:19.972Z,8.80
2022-10-02T19:48:55.797Z,13.17
2022-10-02T19:51:30.437Z,11.00
2022-10-02T19:54:06.399Z,11.40
2022-10-02T19:56:41.061Z,11.00
2022-10-02T19:59:17.136Z,12.20
2022-10-02T20:01:50.813Z,8.87
2022-10-02T20:04:21.174Z,9.13
2022-10-02T20:06:53.899Z,5.50
2022-10-02T20:09:31.306Z,7.57
2022-10-02T20:12:05.820Z,6.23
2022-10-02T20:14:40.520Z,7.80
2022-10-02T20:17:10.602Z,7.03
2022-10-02T20:19:42.366Z,10.83
2022-10-02T20:22:23.958Z,10.30
2022-10-02T20:24:58.255Z,11.47
2022-10-02T20:27:36.152Z,10.60
2022-10-02T20:30:08.169Z,8.53
2022-10-02T20:32:40.135Z,9.83
2022-10-02T20:35:15.266Z,8.43
2022-10-02T20:37:46.673Z,11.37
2022-10-02T20:40:19.985Z,10.40
2022-10-02T20:42:55.320Z,10.57
2022-10-02T20:45:29.391Z,9.87
2022-10-02T20:49:03.531Z,10.10
2022-10-02T20:51:52.905Z,9.20
2022-10-02T20:54:35.831Z,10.37
2022-10-02T20:58:01.492Z,11.93
2022-10-02T21:00:44.162Z,9.97
2022-10-02T21:03:32.403Z,7.87
2022-10-02T21:06:26.377Z,11.80
2022-10-02T21:09:23.408Z,10.47
2022-10-02T21:12:28.288Z,12.20
2022-10-02T21:15:34.623Z,9.63
2022-10-02T21:18:43.108Z,11.93
2022-10-02T21:21:36.248Z,10.10
2022-10-02T21:24:52.263Z,12.17
2022-10-02T21:27:56.923Z,15.23
2022-10-02T21:30:36.438Z,11.33
2022-10-02T21:33:14.380Z,15.60
2022-10-02T21:35:50.277Z,10.57
2022-10-02T21:38:58.111Z,12.30
2022-10-02T21:42:14.231Z,8.50
2022-10-02T21:45:23.847Z,10.27
2022-10-02T21:48:28.329Z,10.27
2022-10-02T21:51:38.772Z,8.00
2022-10-02T21:54:48.728Z,9.77
2022-10-02T21:58:00.824Z,12.27
2022-10-02T22:00:31.237Z,10.27
2022-10-02T22:03:24.743Z,11.43
2022-10-02T22:06:27.894Z,9.53
2022-10-02T22:09:26.855Z,11.53
2022-10-02T22:12:19.707Z,9.80
2022-10-02T22:14:54.216Z,10.47
2022-10-02T22:17:29.697Z,9.40
2022-10-02T22:20:15.068Z,9.77
2022-10-02T22:22:58.838Z,8.87
2022-10-02T22:25:41.622Z,9.17
2022-10-02T22:28:23.414Z,10.53
2022-10-02T22:31:17.422Z,11.30
2022-10-02T22:33:58.988Z,9.83
2022-10-02T22:36:57.991Z,11.63
2022-10-02T22:39:32.709Z,12.10
2022-10-02T22:42:05.258Z,11.90
2022-10-02T22:44:41.471Z,13.70
2022-10-02T22:47:22.533Z,12.27
2022-10-02T22:49:54.870Z,14.30
2022-10-02T22:52:27.424Z,14.07
2022-10-02T22:55:02.123Z,15.57
2022-10-02T22:57:39.859Z,14.43
2022-10-02T23:00:17.580Z,14.53
2022-10-02T23:02:52.580Z,14.53
2022-10-02T23:05:26.973Z,17.43
2022-10-02T23:07:59.712Z,16.70
2022-10-02T23:10:33.506Z,14.80
2022-10-02T23:13:06.072Z,15.57
2022-10-02T23:15:50.206Z,17.63
2022-10-02T23:18:31.852Z,18.43
2022-10-02T23:21:10.000Z,16.60
2022-10-02T23:23:50.897Z,20.07
2022-10-02T23:26:27.532Z,27.47
2022-10-02T23:29:06.928Z,22.37
2022-10-02T23:31:42.003Z,16.27
2022-10-02T23:34:18.057Z,22.67
2022-10-02T23:36:51.836Z,20.00
2022-10-02T23:39:27.663Z,21.53
2022-10-02T23:41:59.481Z,27.07
2022-10-02T23:44:38.733Z,22.00
2022-10-02T23:47:14.772Z,22.80
2022-10-02T23:49:48.021Z,23.33
2022-10-02T23:52:43.447Z,22.37
2022-10-02T23:55:32.535Z,21.90
2022-10-02T23:58:22.825Z,25.47
